Time;durP1;ratioP1;P1;durP2;ratioP2;P2;SDS_P1;SDS_P2;PMS_P1;PMS_P2;Temp;Humidity;BMP_temperature;BMP_pressure;BME280_temperature;BME280_humidity;BME280_pressure;Samples;Min_cycle;Max_cycle;Signal;HPM_P1;HPM_P2
2021/10/03 00:01:37;;;;;;;8.43;6.70;;;;;;;12.29;62.20;96759.44;1778019;80;21338;-84
2021/10/03 00:04:03;;;;;;;9.23;6.80;;;;;;;12.32;62.28;96758.27;1777754;81;20999;-84
2021/10/03 00:06:28;;;;;;;6.50;5.78;;;;;;;12.31;62.25;96748.33;1777814;81;21007;-84
2021/10/03 00:08:54;;;;;;;7.83;6.17;;;;;;;12.31;62.05;96757.45;1778000;80;21486;-84
2021/10/03 00:11:20;;;;;;;7.05;6.28;;;;;;;12.30;61.95;96747.22;1777634;80;21019;-84
2021/10/03 00:13:47;;;;;;;7.22;6.42;;;;;;;12.30;62.04;96739.41;1777555;80;21055;-84
2021/10/03 00:16:13;;;;;;;8.40;6.53;;;;;;;12.29;61.79;96733.38;1777944;80;21332;-84
2021/10/03 00:18:39;;;;;;;8.43;6.47;;;;;;;12.28;62.19;96738.28;1777742;81;20991;-84
2021/10/03 00:21:08;;;;;;;7.25;6.28;;;;;;;12.25;62.13;96734.75;1777812;81;21485;-84
2021/10/03 00:23:34;;;;;;;7.25;5.67;;;;;;;12.23;61.93;96738.53;1777906;80;21364;-84
2021/10/03 00:26:00;;;;;;;7.05;6.35;;;;;;;12.23;61.69;96737.23;1777848;81;20952;-84
2021/10/03 00:28:25;;;;;;;7.17;6.47;;;;;;;12.25;61.84;96737.85;1778009;80;20991;-84
2021/10/03 00:30:51;;;;;;;10.13;6.85;;;;;;;12.26;61.91;96737.66;1753742;81;20983;-84
2021/10/03 00:33:17;;;;;;;9.78;6.90;;;;;;;12.27;61.89;96737.17;1777963;81;20944;-84
2021/10/03 00:35:43;;;;;;;10.85;6.45;;;;;;;12.24;61.61;96740.14;1777891;80;20972;-84
2021/10/03 00:38:09;;;;;;;8.10;5.70;;;;;;;12.24;61.67;96742.75;1782096;79;20957;-84
2021/10/03 00:40:37;;;;;;;7.75;6.22;;;;;;;12.23;61.88;96741.94;1794050;79;21368;-84
2021/10/03 00:43:03;;;;;;;6.75;5.83;;;;;;;12.22;61.66;96745.55;1782374;79;21346;-84
2021/10/03 00:45:31;;;;;;;8.90;6.90;;;;;;;12.21;61.45;96747.03;1784107;79;20935;-84
2021/10/03 00:47:57;;;;;;;8.75;6.05;;;;;;;12.20;61.57;96739.70;1807432;79;20980;-84
2021/10/03 00:50:23;;;;;;;10.63;6.92;;;;;;;12.21;61.61;96741.32;1784629;79;21077;-84
2021/10/03 00:52:49;;;;;;;6.00;5.33;;;;;;;12.21;62.17;96736.11;1807819;79;22176;-84
2021/10/03 00:55:17;;;;;;;7.67;5.42;;;;;;;12.21;61.56;96735.30;1808160;79;21015;-83
2021/10/03 00:57:45;;;;;;;6.25;5.30;;;;;;;12.22;61.61;96733.02;1800647;78;20983;-84
2021/10/03 01:00:13;;;;;;;7.67;6.25;;;;;;;12.23;61.42;96737.23;1772501;78;21034;-84
2021/10/03 01:02:40;;;;;;;6.22;5.55;;;;;;;12.24;61.93;96738.34;1800367;78;21000;-84
2021/10/03 01:05:07;;;;;;;10.35;7.00;;;;;;;12.20;61.84;96716.73;1797468;79;20959;-84
2021/10/03 01:07:33;;;;;;;7.50;6.35;;;;;;;12.18;61.58;96715.61;1793356;78;20980;-84
2021/10/03 01:10:00;;;;;;;7.75;5.80;;;;;;;12.20;61.68;96719.33;1806033;78;21335;-84
2021/10/03 01:12:27;;;;;;;8.28;5.92;;;;;;;12.19;61.05;96724.23;1772980;78;20970;-84
2021/10/03 01:14:52;;;;;;;7.53;6.22;;;;;;;12.24;61.33;96711.48;1772963;79;21051;-84
2021/10/03 01:17:18;;;;;;;8.73;6.30;;;;;;;12.26;61.17;96721.22;1773079;78;22105;-84
2021/10/03 01:19:44;;;;;;;7.65;6.40;;;;;;;12.26;61.31;96710.80;1792863;78;20954;-84
2021/10/03 01:22:10;;;;;;;9.38;6.53;;;;;;;12.24;61.38;96712.79;1776668;78;20995;-84
2021/10/03 01:24:35;;;;;;;9.18;7.28;;;;;;;12.21;61.43;96709.25;1772972;78;20931;-84
2021/10/03 01:27:02;;;;;;;8.63;7.10;;;;;;;12.16;61.84;96710.28;1795592;78;20904;-84
2021/10/03 01:29:28;;;;;;;7.95;6.92;;;;;;;12.12;61.29;96707.73;1797484;79;21004;-84
2021/10/03 01:31:54;;;;;;;9.93;6.90;;;;;;;12.11;61.38;96703.52;1787642;78;21298;-84
2021/10/03 01:34:20;;;;;;;8.83;6.28;;;;;;;12.11;61.59;96699.61;1770934;80;20984;-83
2021/10/03 01:36:46;;;;;;;9.43;6.12;;;;;;;12.08;62.38;96692.97;1805229;78;21035;-84
2021/10/03 01:39:11;;;;;;;8.28;5.90;;;;;;;12.03;61.89;96694.00;1778503;79;21345;-84
2021/10/03 01:41:37;;;;;;;6.67;5.97;;;;;;;11.99;62.11;96701.88;1773780;80;20978;-84
2021/10/03 01:44:03;;;;;;;9.70;5.72;;;;;;;11.94;63.05;96699.02;1750296;81;21032;-84
2021/10/03 01:46:29;;;;;;;9.95;6.78;;;;;;;11.88;62.87;96695.35;1771210;81;20986;-84
2021/10/03 01:48:55;;;;;;;8.35;5.83;;;;;;;11.84;62.83;96686.77;1751630;81;21000;-83
2021/10/03 01:51:21;;;;;;;8.20;6.60;;;;;;;11.79;62.96;96684.71;1767140;81;20949;-84
2021/10/03 01:53:52;;;;;;;10.25;6.60;;;;;;;11.75;63.14;96686.04;1750927;81;20938;-84
2021/10/03 01:56:19;;;;;;;6.97;5.15;;;;;;;11.69;63.96;96668.53;1758457;81;20998;-84
2021/10/03 01:58:54;;;;;;;8.28;5.22;;;;;;;11.62;64.04;96677.56;1743382;81;20968;-84
2021/10/03 02:01:44;;;;;;;8.28;5.85;;;;;;;11.60;64.69;96674.83;1745343;81;20998;-84
2021/10/03 02:04:20;;;;;;;10.98;7.45;;;;;;;11.57;64.70;96673.90;1754876;81;20959;-84
2021/10/03 02:06:49;;;;;;;7.95;7.15;;;;;;;11.52;64.68;96672.31;1764142;81;21359;-84
2021/10/03 02:09:16;;;;;;;6.87;5.90;;;;;;;11.47;64.98;96668.15;1761642;81;21378;-84
2021/10/03 02:11:46;;;;;;;9.90;7.05;;;;;;;11.40;65.02;96661.07;1760485;81;21139;-83
2021/10/03 02:14:13;;;;;;;7.20;6.50;;;;;;;11.35;65.68;96661.28;1761176;81;21334;-83
2021/10/03 02:16:39;;;;;;;7.62;6.40;;;;;;;11.28;65.21;96654.69;1756916;81;21048;-84
2021/10/03 02:19:05;;;;;;;8.73;6.50;;;;;;;11.27;64.62;96647.08;1773097;81;21409;-84
2021/10/03 02:21:31;;;;;;;8.88;6.60;;;;;;;11.32;64.33;96650.73;1774307;81;20911;-84
2021/10/03 02:23:56;;;;;;;9.18;6.35;;;;;;;11.33;64.56;96652.35;1751448;81;21280;-84
2021/10/03 02:26:22;;;;;;;7.12;6.28;;;;;;;11.33;64.89;96648.95;1756545;81;20936;-84
2021/10/03 02:28:48;;;;;;;9.08;7.37;;;;;;;11.29;65.72;96658.10;1743977;81;20939;-84
2021/10/03 02:31:13;;;;;;;7.35;6.40;;;;;;;11.19;65.55;96658.36;1760843;81;20991;-84
2021/10/03 02:33:42;;;;;;;5.90;5.30;;;;;;;11.16;65.45;96659.20;1755966;81;21001;-83
2021/10/03 02:36:08;;;;;;;7.78;6.20;;;;;;;11.17;66.58;96660.82;1767999;81;20980;-84
2021/10/03 02:38:34;;;;;;;8.33;6.40;;;;;;;11.14;66.70;96658.09;1781825;79;21058;-84
2021/10/03 02:41:00;;;;;;;6.78;5.90;;;;;;;11.08;66.82;96658.81;1776424;78;21055;-84
2021/10/03 02:43:28;;;;;;;8.50;7.15;;;;;;;11.00;67.11;96661.48;1776561;78;21047;-84
2021/10/03 02:45:54;;;;;;;7.90;6.58;;;;;;;10.91;66.67;96658.16;1787699;79;20906;-84
2021/10/03 02:48:22;;;;;;;10.65;8.23;;;;;;;10.91;67.34;96651.66;1789011;79;20977;-84
2021/10/03 02:50:48;;;;;;;10.40;7.00;;;;;;;10.88;67.92;96653.78;1776625;79;20990;-84
2021/10/03 02:53:15;;;;;;;9.03;5.85;;;;;;;10.79;68.07;96647.87;1776601;79;21447;-84
2021/10/03 02:55:41;;;;;;;6.97;5.45;;;;;;;10.74;68.45;96641.91;1776792;79;20970;-83
2021/10/03 02:58:07;;;;;;;6.85;6.25;;;;;;;10.66;68.54;96646.35;1801420;79;21290;-84
2021/10/03 03:00:38;;;;;;;10.05;6.67;;;;;;;10.63;68.88;96638.42;1805861;79;21334;-83
2021/10/03 03:03:03;;;;;;;9.23;6.95;;;;;;;10.59;68.91;96647.56;1806221;79;20963;-83
2021/10/03 03:05:29;;;;;;;8.70;6.60;;;;;;;10.51;69.16;96642.41;1806275;79;21251;-84
2021/10/03 03:07:55;;;;;;;7.42;6.72;;;;;;;10.43;69.43;96640.70;1806503;79;20907;-83
2021/10/03 03:10:21;;;;;;;7.72;6.85;;;;;;;10.32;69.52;96636.39;1806072;79;21006;-84
2021/10/03 03:12:46;;;;;;;6.55;5.72;;;;;;;10.23;69.96;96632.54;1806287;79;20986;-83
2021/10/03 03:15:12;;;;;;;11.90;5.92;;;;;;;10.21;70.06;96638.89;1806347;79;20912;-83
2021/10/03 03:17:38;;;;;;;6.08;5.40;;;;;;;10.18;70.32;96645.70;1806172;79;21678;-84
2021/10/03 03:20:06;;;;;;;7.78;7.05;;;;;;;10.16;70.30;96651.56;1805783;79;20895;-83
2021/10/03 03:22:34;;;;;;;7.17;6.45;;;;;;;10.16;70.37;96648.97;1805989;79;21031;-84
2021/10/03 03:24:59;;;;;;;8.65;6.70;;;;;;;10.10;70.68;96645.28;1806328;79;21497;-84
2021/10/03 03:27:25;;;;;;;9.93;6.70;;;;;;;10.05;70.64;96663.63;1806204;79;20923;-83
2021/10/03 03:29:51;;;;;;;14.45;8.33;;;;;;;10.00;71.00;96668.54;1806281;79;20931;-83
2021/10/03 03:32:17;;;;;;;7.35;6.00;;;;;;;9.95;71.42;96661.77;1806371;79;20892;-84
2021/10/03 03:34:42;;;;;;;9.75;6.78;;;;;;;9.90;71.59;96663.05;1806291;79;20974;-84
2021/10/03 03:37:08;;;;;;;9.20;6.40;;;;;;;9.87;72.00;96659.51;1806317;79;20927;-83
2021/10/03 03:39:34;;;;;;;7.72;6.35;;;;;;;9.91;71.34;96667.75;1821596;79;20976;-84
2021/10/03 03:42:01;;;;;;;8.55;6.80;;;;;;;9.91;71.54;96659.48;1824852;79;21006;-84
2021/10/03 03:44:29;;;;;;;8.30;6.62;;;;;;;9.96;71.05;96655.59;1825120;79;21359;-84
2021/10/03 03:46:54;;;;;;;9.38;7.42;;;;;;;10.02;71.26;96646.61;1825033;79;20991;-84
2021/10/03 03:49:20;;;;;;;8.73;7.30;;;;;;;10.04;71.45;96639.95;1825335;79;21279;-83
2021/10/03 03:51:46;;;;;;;8.28;6.72;;;;;;;10.06;71.64;96645.77;1824987;79;20939;-84
2021/10/03 03:54:11;;;;;;;8.20;6.22;;;;;;;10.09;71.48;96647.56;1825215;79;20911;-84
2021/10/03 03:56:37;;;;;;;10.53;6.53;;;;;;;10.15;71.20;96648.65;1825122;79;20966;-84
2021/10/03 03:59:03;;;;;;;6.90;5.50;;;;;;;10.21;70.38;96649.28;1825380;79;20927;-84
2021/10/03 04:01:29;;;;;;;8.68;6.90;;;;;;;10.30;72.07;96647.45;1824685;79;21074;-84
2021/10/03 04:03:55;;;;;;;8.00;6.03;;;;;;;10.32;70.03;96649.38;1825199;79;21432;-83
2021/10/03 04:06:21;;;;;;;11.03;7.05;;;;;;;10.41;70.42;96653.52;1824828;79;20932;-84
2021/10/03 04:08:46;;;;;;;7.72;6.12;;;;;;;10.42;71.18;96641.69;1825176;79;21299;-84
2021/10/03 04:11:13;;;;;;;8.03;6.53;;;;;;;10.37;71.33;96647.87;1825028;79;20986;-84
2021/10/03 04:13:40;;;;;;;8.98;5.87;;;;;;;10.30;71.33;96654.75;1825112;79;21379;-83
2021/10/03 04:16:06;;;;;;;7.40;5.50;;;;;;;10.26;71.17;96659.98;1825094;79;20963;-83
2021/10/03 04:18:32;;;;;;;6.35;5.70;;;;;;;10.26;71.46;96660.47;1824860;79;21295;-83
2021/10/03 04:20:57;;;;;;;8.08;6.05;;;;;;;10.25;71.05;96653.63;1824992;79;20923;-84
2021/10/03 04:23:23;;;;;;;8.85;7.22;;;;;;;10.28;71.47;96653.31;1824898;79;20940;-83
2021/10/03 04:25:49;;;;;;;7.45;6.75;;;;;;;10.26;71.38;96650.08;1825195;79;21263;-83
2021/10/03 04:28:14;;;;;;;9.30;7.45;;;;;;;10.22;70.94;96638.72;1825103;79;20951;-84
2021/10/03 04:30:40;;;;;;;8.85;6.53;;;;;;;10.26;71.72;96647.48;1825075;79;20924;-84
2021/10/03 04:33:06;;;;;;;8.23;6.30;;;;;;;10.23;71.79;96644.72;1825088;79;21322;-83
2021/10/03 04:35:32;;;;;;;7.42;5.33;;;;;;;10.18;71.74;96637.91;1825001;79;20983;-83
2021/10/03 04:37:57;;;;;;;7.50;5.03;;;;;;;10.16;71.83;96644.58;1824924;79;20931;-83
2021/10/03 04:40:23;;;;;;;7.62;5.72;;;;;;;10.12;72.12;96645.91;1825138;79;21007;-84
2021/10/03 04:42:49;;;;;;;9.13;7.00;;;;;;;10.04;71.96;96648.55;1825055;79;20948;-83
2021/10/03 04:45:16;;;;;;;7.58;6.60;;;;;;;9.98;72.38;96650.54;1825095;79;20904;-84
2021/10/03 04:47:43;;;;;;;7.30;6.20;;;;;;;9.89;73.06;96649.77;1824933;79;20999;-83
2021/10/03 04:50:09;;;;;;;10.13;5.90;;;;;;;9.80;72.95;96652.59;1825225;79;21302;-83
2021/10/03 04:52:35;;;;;;;7.00;5.70;;;;;;;9.74;73.19;96654.55;1825159;79;20931;-84
2021/10/03 04:55:01;;;;;;;7.08;5.80;;;;;;;9.68;73.03;96662.53;1825017;79;21423;-83
2021/10/03 04:57:27;;;;;;;7.95;5.85;;;;;;;9.66;73.26;96660.59;1824971;79;21038;-84
2021/10/03 04:59:53;;;;;;;7.50;6.70;;;;;;;9.64;73.54;96661.25;1824885;79;21048;-83
2021/10/03 05:02:19;;;;;;;9.85;6.97;;;;;;;9.62;73.74;96658.83;1824747;79;21046;-84
2021/10/03 05:04:45;;;;;;;8.93;6.53;;;;;;;9.56;74.25;96656.89;1825236;79;21285;-83
2021/10/03 05:07:10;;;;;;;7.17;6.20;;;;;;;9.51;74.30;96655.30;1824853;79;20973;-83
2021/10/03 05:09:36;;;;;;;7.08;5.75;;;;;;;9.45;74.46;96655.17;1825045;79;20944;-83
2021/10/03 05:12:02;;;;;;;7.87;5.12;;;;;;;9.43;74.51;96656.61;1824863;79;21338;-84
2021/10/03 05:14:28;;;;;;;8.00;6.45;;;;;;;9.43;74.72;96650.13;1825027;79;20951;-83
2021/10/03 05:16:54;;;;;;;6.92;6.08;;;;;;;9.41;74.14;96647.38;1825195;79;20927;-84
2021/10/03 05:19:20;;;;;;;8.73;6.62;;;;;;;9.39;74.31;96639.78;1825019;79;20955;-83
2021/10/03 05:21:47;;;;;;;11.05;6.70;;;;;;;9.41;74.13;96645.59;1824547;79;21031;-83
2021/10/03 05:24:12;;;;;;;9.25;6.67;;;;;;;9.40;74.28;96639.28;1824965;79;20911;-83
2021/10/03 05:26:38;;;;;;;9.23;6.60;;;;;;;9.35;74.41;96644.98;1825215;79;20903;-83
2021/10/03 05:29:04;;;;;;;6.15;5.35;;;;;;;9.33;74.42;96641.75;1824946;79;20943;-83
2021/10/03 05:31:29;;;;;;;8.15;5.80;;;;;;;9.34;74.57;96643.37;1817025;79;21005;-83
2021/10/03 05:33:57;;;;;;;9.55;6.22;;;;;;;9.35;74.96;96638.50;1782910;79;20956;-83
2021/10/03 05:36:24;;;;;;;14.45;6.55;;;;;;;9.32;75.12;96637.55;1788367;80;20987;-83
2021/10/03 05:38:49;;;;;;;7.55;6.50;;;;;;;9.29;75.22;96634.00;1793614;79;20998;-83
2021/10/03 05:41:15;;;;;;;8.53;6.53;;;;;;;9.27;75.29;96644.99;1795939;78;21007;-83
2021/10/03 05:43:41;;;;;;;6.53;5.85;;;;;;;9.25;75.26;96641.28;1779200;78;21395;-83
2021/10/03 05:46:07;;;;;;;6.12;5.37;;;;;;;9.24;75.42;96644.04;1790991;79;21352;-83
2021/10/03 05:48:33;;;;;;;5.83;4.70;;;;;;;9.26;75.48;96649.86;1808285;79;20991;-83
2021/10/03 05:51:00;;;;;;;7.60;6.67;;;;;;;9.25;76.00;96651.64;1773258;78;21484;-83
2021/10/03 05:53:26;;;;;;;8.38;6.35;;;;;;;9.26;75.96;96658.94;1791640;78;21003;-83
2021/10/03 05:55:52;;;;;;;7.35;6.42;;;;;;;9.28;76.02;96655.72;1782595;79;20955;-83
2021/10/03 05:58:18;;;;;;;7.75;6.85;;;;;;;9.28;76.37;96652.63;1792503;79;20931;-83
2021/10/03 06:00:44;;;;;;;8.25;5.70;;;;;;;9.29;76.30;96652.95;1773072;78;21299;-83
2021/10/03 06:03:09;;;;;;;7.00;5.53;;;;;;;9.31;76.17;96648.41;1773086;78;20986;-83
2021/10/03 06:05:35;;;;;;;8.33;6.03;;;;;;;9.36;76.44;96643.20;1790419;79;20995;-83
2021/10/03 06:08:01;;;;;;;7.62;6.40;;;;;;;9.40;76.35;96637.98;1805529;78;21329;-83
2021/10/03 06:10:27;;;;;;;7.67;6.78;;;;;;;9.46;76.77;96638.64;1799804;79;20935;-83
2021/10/03 06:12:52;;;;;;;10.98;6.37;;;;;;;9.49;76.76;96638.30;1787906;78;20884;-83
2021/10/03 06:15:18;;;;;;;6.92;5.53;;;;;;;9.48;76.79;96637.97;1805487;79;20937;-83
2021/10/03 06:17:44;;;;;;;6.37;4.92;;;;;;;9.48;76.71;96627.11;1784141;79;20925;-83
2021/10/03 06:20:12;;;;;;;8.03;5.37;;;;;;;9.56;76.79;96636.62;1803434;79;21385;-83
2021/10/03 06:22:43;;;;;;;9.25;6.70;;;;;;;9.63;76.87;96638.39;1785364;78;20984;-83
2021/10/03 06:25:07;;;;;;;7.87;7.08;;;;;;;9.68;77.22;96633.17;1787458;79;20971;-83
2021/10/03 06:27:33;;;;;;;8.25;7.12;;;;;;;9.73;77.18;96634.77;1795838;78;20915;-83
2021/10/03 06:29:58;;;;;;;8.10;6.33;;;;;;;9.76;77.23;96630.06;1787247;78;20996;-83
2021/10/03 06:32:24;;;;;;;8.23;6.12;;;;;;;9.78;77.17;96624.22;1807713;79;20941;-83
2021/10/03 06:34:50;;;;;;;7.33;5.10;;;;;;;9.82;77.09;96625.97;1774128;78;20939;-83
2021/10/03 06:37:17;;;;;;;7.15;6.10;;;;;;;9.89;77.41;96616.51;1773113;78;21309;-83
2021/10/03 06:39:43;;;;;;;7.85;5.78;;;;;;;9.97;77.54;96617.77;1767951;78;21034;-83
2021/10/03 06:42:08;;;;;;;6.25;5.65;;;;;;;10.01;76.57;96616.45;1797515;80;21003;-83
2021/10/03 06:44:34;;;;;;;8.38;5.50;;;;;;;10.29;75.05;96610.77;1797897;80;20903;-83
2021/10/03 06:47:00;;;;;;;9.35;5.97;;;;;;;10.47;75.85;96609.48;1797993;80;21039;-83
2021/10/03 06:49:26;;;;;;;7.30;6.55;;;;;;;10.60;74.40;96611.98;1797770;80;20991;-83
2021/10/03 06:51:52;;;;;;;6.15;5.55;;;;;;;10.72;75.96;96617.86;1797170;80;21026;-84
2021/10/03 06:54:18;;;;;;;6.97;4.60;;;;;;;10.79;73.27;96610.98;1797483;79;20919;-84
2021/10/03 06:56:45;;;;;;;6.25;4.78;;;;;;;10.93;72.24;96612.48;1797976;80;21341;-83
2021/10/03 06:59:11;;;;;;;6.37;5.20;;;;;;;11.13;71.44;96613.07;1797842;80;20986;-83
2021/10/03 07:01:37;;;;;;;6.15;5.05;;;;;;;11.33;72.06;96621.13;1797920;80;20900;-84
2021/10/03 07:04:04;;;;;;;5.70;4.60;;;;;;;11.50;69.68;96617.04;1797553;80;20987;-83
2021/10/03 07:06:29;;;;;;;5.08;4.37;;;;;;;11.62;68.46;96601.28;1797912;80;20935;-84
2021/10/03 07:08:55;;;;;;;6.67;4.03;;;;;;;11.79;69.66;96610.52;1797910;80;21337;-84
2021/10/03 07:11:21;;;;;;;6.53;4.33;;;;;;;11.92;68.57;96599.44;1797793;80;21007;-83
2021/10/03 07:13:46;;;;;;;6.58;4.75;;;;;;;12.04;66.89;96586.25;1797977;80;20911;-84
2021/10/03 07:16:12;;;;;;;8.53;4.90;;;;;;;12.13;66.80;96592.94;1797893;80;21255;-83
2021/10/03 07:18:38;;;;;;;5.85;4.90;;;;;;;12.24;68.62;96595.06;1797830;80;20931;-83
2021/10/03 07:21:04;;;;;;;6.72;4.95;;;;;;;12.33;66.92;96594.41;1770983;80;20928;-83
2021/10/03 07:23:32;;;;;;;5.20;4.45;;;;;;;12.44;66.20;96597.83;1797505;80;21022;-84
2021/10/03 07:25:58;;;;;;;5.47;4.00;;;;;;;12.53;66.30;96604.53;1797963;80;21078;-83
2021/10/03 07:28:24;;;;;;;5.20;3.98;;;;;;;12.67;65.23;96600.70;1797998;80;20951;-83
2021/10/03 07:30:51;;;;;;;6.47;4.97;;;;;;;12.80;63.84;96596.89;1798057;80;20991;-83
2021/10/03 07:33:18;;;;;;;7.22;4.33;;;;;;;12.93;62.18;96591.77;1797886;80;21286;-84
2021/10/03 07:35:47;;;;;;;7.80;4.90;;;;;;;13.07;63.43;96613.53;1797764;80;20940;-83
2021/10/03 07:38:13;;;;;;;6.03;4.20;;;;;;;13.15;62.68;96607.65;1797954;80;20991;-83
2021/10/03 07:40:39;;;;;;;4.45;4.00;;;;;;;13.21;62.69;96606.12;1806398;78;21082;-83
2021/10/03 07:43:05;;;;;;;6.17;4.53;;;;;;;13.27;63.11;96615.78;1808313;79;21382;-83
2021/10/03 07:45:31;;;;;;;5.08;4.08;;;;;;;13.34;61.51;96617.11;1808267;79;20960;-83
2021/10/03 07:47:56;;;;;;;5.67;3.83;;;;;;;13.45;62.71;96620.48;1808188;79;20939;-84
2021/10/03 07:50:22;;;;;;;10.18;6.17;;;;;;;13.50;60.61;96603.73;1808279;79;20904;-83
2021/10/03 07:52:48;;;;;;;5.72;4.25;;;;;;;13.60;61.40;96613.83;1808203;79;20964;-84
2021/10/03 07:55:14;;;;;;;7.12;4.33;;;;;;;13.68;59.90;96615.79;1808145;79;21308;-83
2021/10/03 07:57:40;;;;;;;15.85;8.95;;;;;;;13.80;60.75;96594.61;1808267;79;20965;-84
2021/10/03 08:00:07;;;;;;;6.72;4.92;;;;;;;13.90;60.66;96599.98;1808119;79;21021;-84
2021/10/03 08:02:33;;;;;;;8.75;5.30;;;;;;;13.99;60.56;96601.39;1808330;79;21403;-84
2021/10/03 08:04:58;;;;;;;6.70;5.35;;;;;;;14.06;60.38;96590.47;1808255;79;21003;-84
2021/10/03 08:07:24;;;;;;;6.95;5.50;;;;;;;14.08;60.02;96595.00;1808211;79;20989;-84
2021/10/03 08:09:50;;;;;;;7.15;4.45;;;;;;;14.16;60.15;96590.10;1808266;79;21303;-84
2021/10/03 08:12:15;;;;;;;9.43;5.37;;;;;;;14.22;59.49;96591.91;1807684;79;21054;-84
2021/10/03 08:14:41;;;;;;;5.80;4.53;;;;;;;14.25;60.88;96589.70;1776571;79;20997;-83
2021/10/03 08:17:08;;;;;;;4.92;3.98;;;;;;;14.28;60.82;96587.18;1768079;79;21335;-83
2021/10/03 08:19:33;;;;;;;6.58;4.35;;;;;;;14.25;62.38;96582.36;1796663;79;20952;-84
2021/10/03 08:21:59;;;;;;;6.45;4.47;;;;;;;14.20;61.18;96592.61;1808174;79;21414;-83
2021/10/03 08:24:26;;;;;;;7.37;4.72;;;;;;;14.22;59.75;96597.94;1807913;79;21016;-84
2021/10/03 08:26:52;;;;;;;4.97;4.25;;;;;;;14.28;60.56;96594.52;1808217;79;20976;-84
2021/10/03 08:29:18;;;;;;;7.72;4.97;;;;;;;14.34;61.52;96596.35;1808243;79;20969;-84
2021/10/03 08:31:44;;;;;;;7.70;4.75;;;;;;;14.38;61.08;96594.94;1808272;79;21035;-84
2021/10/03 08:34:10;;;;;;;8.10;5.15;;;;;;;14.44;61.86;96593.86;1808376;79;21303;-84
2021/10/03 08:36:35;;;;;;;5.80;4.45;;;;;;;14.52;60.30;96591.86;1808143;79;20936;-84
2021/10/03 08:39:01;;;;;;;4.83;4.30;;;;;;;14.64;60.40;96586.34;1805586;79;20999;-84
2021/10/03 08:41:27;;;;;;;6.47;4.12;;;;;;;14.74;60.50;96590.34;1772624;79;21010;-84
2021/10/03 08:43:53;;;;;;;6.60;4.58;;;;;;;14.80;59.46;96598.17;1775664;79;21023;-84
2021/10/03 08:46:27;;;;;;;7.37;4.40;;;;;;;14.90;59.77;96594.65;1781634;80;21022;-84
2021/10/03 08:48:55;;;;;;;6.12;4.95;;;;;;;14.98;59.50;96600.19;1790166;79;20951;-84
2021/10/03 08:51:21;;;;;;;6.00;4.25;;;;;;;15.08;60.49;96598.45;1767344;79;21002;-84
2021/10/03 08:53:46;;;;;;;7.95;5.42;;;;;;;15.11;61.54;96601.95;1783557;79;21327;-83
2021/10/03 08:56:13;;;;;;;6.08;4.78;;;;;;;15.09;60.58;96593.51;1775181;79;21050;-84
2021/10/03 08:58:39;;;;;;;4.80;3.87;;;;;;;15.12;60.73;96583.94;1767253;80;20943;-84
2021/10/03 09:01:05;;;;;;;5.90;4.28;;;;;;;15.19;60.29;96589.98;1782986;79;20959;-84
2021/10/03 09:03:32;;;;;;;6.05;4.70;;;;;;;15.27;59.64;96578.77;1797178;79;20941;-84
2021/10/03 09:05:58;;;;;;;5.95;5.20;;;;;;;15.33;60.14;96575.84;1797877;79;21010;-83
2021/10/03 09:08:30;;;;;;;6.72;4.65;;;;;;;15.41;59.48;96583.45;1797844;79;21029;-84
2021/10/03 09:10:59;;;;;;;5.95;5.35;;;;;;;15.51;60.67;96579.09;1770732;79;21318;-84
2021/10/03 09:13:37;;;;;;;5.80;4.40;;;;;;;15.58;59.55;96570.70;1767372;80;21404;-84
2021/10/03 09:16:13;;;;;;;5.97;4.92;;;;;;;15.67;59.35;96574.73;1770588;79;21015;-84
2021/10/03 09:18:43;;;;;;;6.92;4.90;;;;;;;15.75;59.28;96561.88;1787702;79;21030;-84
2021/10/03 09:21:11;;;;;;;6.28;4.97;;;;;;;15.84;59.29;96563.26;1788831;80;20931;-84
2021/10/03 09:23:37;;;;;;;5.10;4.55;;;;;;;15.97;58.23;96561.08;1784181;79;21292;-84
2021/10/03 09:26:05;;;;;;;5.67;5.08;;;;;;;16.07;57.60;96554.34;1770729;79;21035;-84
2021/10/03 09:28:33;;;;;;;6.03;4.60;;;;;;;16.19;58.84;96562.33;1774844;79;20969;-84
2021/10/03 09:31:07;;;;;;;5.20;3.83;;;;;;;16.27;59.46;96561.25;1794942;79;21082;-84
2021/10/03 09:33:55;;;;;;;6.47;3.90;;;;;;;16.35;57.64;96563.13;1777237;79;21033;-84
2021/10/03 09:36:32;;;;;;;5.17;4.55;;;;;;;16.47;57.88;96558.80;1793910;79;20914;-84
2021/10/03 09:39:08;;;;;;;4.72;4.00;;;;;;;16.62;56.98;96557.67;1780386;79;21008;-84
2021/10/03 09:41:39;;;;;;;5.15;4.62;;;;;;;16.66;56.89;96564.89;1774173;79;20944;-84
2021/10/03 09:44:13;;;;;;;6.25;4.55;;;;;;;16.68;57.34;96556.33;1790106;79;21002;-84
2021/10/03 09:46:51;;;;;;;7.15;4.62;;;;;;;16.70;58.44;96556.91;1767110;79;20943;-84
2021/10/03 09:49:26;;;;;;;7.03;4.20;;;;;;;16.72;56.96;96553.56;1767166;79;20955;-85
2021/10/03 09:51:52;;;;;;;7.05;5.35;;;;;;;16.78;57.01;96556.65;1757664;81;21068;-84
2021/10/03 09:54:19;;;;;;;6.72;4.75;;;;;;;16.86;57.78;96560.80;1778455;80;21030;-84
2021/10/03 09:56:45;;;;;;;5.47;4.42;;;;;;;16.97;57.20;96561.92;1794153;79;20976;-84
2021/10/03 09:59:11;;;;;;;6.22;4.08;;;;;;;17.08;57.18;96580.39;1786469;79;21014;-84
2021/10/03 10:01:44;;;;;;;5.58;4.42;;;;;;;17.18;56.89;96558.86;1795397;79;20999;-84
2021/10/03 10:04:11;;;;;;;;;;;;;;;17.27;56.48;96547.57;1784338;79;20944;-84
2021/10/03 10:06:37;;;;;;;6.85;6.00;;;;;;;17.34;56.57;96549.08;1782830;79;20095;-84
2021/10/03 10:09:10;;;;;;;6.35;4.50;;;;;;;17.40;57.69;96542.14;1776987;79;21046;-84
2021/10/03 10:11:44;;;;;;;8.63;4.53;;;;;;;17.47;56.56;96545.50;1801896;78;20975;-84
2021/10/03 10:14:10;;;;;;;5.78;4.42;;;;;;;17.53;56.29;96547.23;1804021;79;20991;-84
2021/10/03 10:16:47;;;;;;;5.90;3.95;;;;;;;17.60;57.74;96538.78;1785122;79;21023;-84
2021/10/03 10:19:28;;;;;;;5.05;3.87;;;;;;;17.70;57.87;96544.83;1787388;79;21365;-84
2021/10/03 10:22:22;;;;;;;5.85;4.37;;;;;;;17.75;57.52;96551.55;1779247;80;20955;-84
2021/10/03 10:24:54;;;;;;;5.58;4.20;;;;;;;17.81;57.58;96540.66;1779332;80;21026;-84
2021/10/03 10:27:28;;;;;;;4.20;3.62;;;;;;;17.90;55.71;96549.33;1798715;79;20963;-84
2021/10/03 10:30:12;;;;;;;5.67;4.47;;;;;;;17.95;55.76;96536.82;1775698;79;21015;-84
2021/10/03 10:33:04;;;;;;;4.72;4.08;;;;;;;18.02;55.52;96544.09;1777785;80;20943;-84
2021/10/03 10:35:33;;;;;;;6.53;4.60;;;;;;;18.10;55.43;96532.47;1785661;79;20918;-84
2021/10/03 10:38:07;;;;;;;3.83;3.47;;;;;;;18.15;54.73;96532.58;1781829;79;20975;-84
2021/10/03 10:40:33;;;;;;;5.67;3.90;;;;;;;18.20;53.80;96533.50;1778851;79;21050;-84
2021/10/03 10:43:08;;;;;;;4.85;3.60;;;;;;;18.28;53.52;96528.44;1753585;81;21046;-84
2021/10/03 10:45:37;;;;;;;4.65;3.92;;;;;;;18.38;54.68;96521.28;1754189;81;20935;-84
2021/10/03 10:48:18;;;;;;;7.08;3.83;;;;;;;18.43;54.14;96514.34;1760892;81;20956;-84
2021/10/03 10:50:53;;;;;;;4.58;3.67;;;;;;;18.51;54.21;96517.13;1757159;81;21069;-84
2021/10/03 10:53:32;;;;;;;4.45;3.85;;;;;;;18.55;53.73;96518.30;1745434;81;21002;-85
2021/10/03 10:56:16;;;;;;;5.05;4.00;;;;;;;18.63;54.28;96514.02;1758640;81;20985;-84
2021/10/03 10:58:54;;;;;;;5.25;4.08;;;;;;;18.71;52.87;96514.17;1748462;81;21080;-84
2021/10/03 11:01:40;;;;;;;6.12;4.25;;;;;;;18.76;52.90;96507.73;1756055;81;21082;-84
2021/10/03 11:04:24;;;;;;;4.55;3.72;;;;;;;18.80;53.64;96511.50;1761434;81;21043;-84
2021/10/03 11:06:52;;;;;;;4.03;3.55;;;;;;;18.81;53.35;96505.20;1743979;81;20959;-85
2021/10/03 11:09:17;;;;;;;6.08;3.67;;;;;;;18.85;53.31;96511.60;1770391;81;20936;-84
2021/10/03 11:11:57;;;;;;;4.50;3.40;;;;;;;18.91;52.70;96520.43;1761217;81;20991;-84
2021/10/03 11:14:25;;;;;;;4.15;2.95;;;;;;;18.94;52.21;96504.97;1739265;81;20967;-84
2021/10/03 11:16:54;;;;;;;4.08;3.30;;;;;;;18.99;50.45;96514.28;1767344;81;20969;-84
2021/10/03 11:19:38;;;;;;;6.72;4.05;;;;;;;19.05;51.25;96499.41;1769663;81;21342;-84
2021/10/03 11:22:09;;;;;;;4.25;3.55;;;;;;;19.09;51.89;96499.22;1753058;81;20959;-84
2021/10/03 11:24:53;;;;;;;5.03;3.65;;;;;;;19.12;51.54;96492.97;1749680;81;21009;-84
2021/10/03 11:27:27;;;;;;;4.65;3.77;;;;;;;19.18;53.17;96497.80;1745909;81;21370;-83
2021/10/03 11:29:59;;;;;;;4.75;3.60;;;;;;;19.25;52.14;96493.23;1765122;81;20947;-84
2021/10/03 11:32:34;;;;;;;5.20;3.60;;;;;;;19.33;52.54;96494.67;1760954;81;21037;-84
2021/10/03 11:35:06;;;;;;;4.87;3.67;;;;;;;19.37;51.19;96491.36;1765505;81;20949;-84
2021/10/03 11:37:49;;;;;;;10.08;4.00;;;;;;;19.40;52.81;96481.67;1753808;81;21044;-84